sensor_id;sensor_type;location;lat;lon;timestamp;P1;P2;P0
24012;PMS7003;12220;50.194;18.948;2022-11-12T00:01:09;27;24;14
24012;PMS7003;12220;50.194;18.948;2022-11-12T00:03:10;25;21;16
24012;PMS7003;12220;50.194;18.948;2022-11-12T00:05:22;24;22;16
24012;PMS7003;12220;50.194;18.948;2022-11-12T00:07:23;29;24;17
24012;PMS7003;12220;50.194;18.948;2022-11-12T00:09:24;24;23;16
24012;PMS7003;12220;50.194;18.948;2022-11-12T00:11:25;28;22;12
24012;PMS7003;12220;50.194;18.948;2022-11-12T00:13:37;23;20;15
24012;PMS7003;12220;50.194;18.948;2022-11-12T00:15:38;31;30;19
24012;PMS7003;12220;50.194;18.948;2022-11-12T00:17:39;31;29;18
24012;PMS7003;12220;50.194;18.948;2022-11-12T00:19:40;28;23;17
24012;PMS7003;12220;50.194;18.948;2022-11-12T00:21:52;26;23;17
24012;PMS7003;12220;50.194;18.948;2022-11-12T00:23:53;25;19;15
24012;PMS7003;12220;50.194;18.948;2022-11-12T00:25:57;27;20;17
24012;PMS7003;12220;50.194;18.948;2022-11-12T00:28:03;30;25;18
24012;PMS7003;12220;50.194;18.948;2022-11-12T00:30:07;24;24;14
24012;PMS7003;12220;50.194;18.948;2022-11-12T00:32:08;26;22;17
24012;PMS7003;12220;50.194;18.948;2022-11-12T00:34:10;19;17;12
24012;PMS7003;12220;50.194;18.948;2022-11-12T00:36:11;19;18;14
24012;PMS7003;12220;50.194;18.948;2022-11-12T00:38:22;31;28;17
24012;PMS7003;12220;50.194;18.948;2022-11-12T00:40:23;26;24;16
24012;PMS7003;12220;50.194;18.948;2022-11-12T00:42:25;25;23;15
24012;PMS7003;12220;50.194;18.948;2022-11-12T00:44:26;22;22;17
24012;PMS7003;12220;50.194;18.948;2022-11-12T00:46:37;30;28;18
24012;PMS7003;12220;50.194;18.948;2022-11-12T00:48:38;31;22;16
24012;PMS7003;12220;50.194;18.948;2022-11-12T00:50:39;34;26;17
24012;PMS7003;12220;50.194;18.948;2022-11-12T00:52:41;23;21;15
24012;PMS7003;12220;50.194;18.948;2022-11-12T00:54:52;27;25;14
24012;PMS7003;12220;50.194;18.948;2022-11-12T00:56:53;33;30;18
24012;PMS7003;12220;50.194;18.948;2022-11-12T00:58:54;31;21;15
24012;PMS7003;12220;50.194;18.948;2022-11-12T01:00:55;23;17;12
24012;PMS7003;12220;50.194;18.948;2022-11-12T01:03:07;27;24;16
24012;PMS7003;12220;50.194;18.948;2022-11-12T01:05:08;24;22;14
24012;PMS7003;12220;50.194;18.948;2022-11-12T01:07:09;27;25;18
24012;PMS7003;12220;50.194;18.948;2022-11-12T01:09:10;21;20;15
24012;PMS7003;12220;50.194;18.948;2022-11-12T01:11:23;31;28;17
24012;PMS7003;12220;50.194;18.948;2022-11-12T01:13:26;23;21;15
24012;PMS7003;12220;50.194;18.948;2022-11-12T01:15:27;32;26;18
24012;PMS7003;12220;50.194;18.948;2022-11-12T01:17:28;25;20;15
24012;PMS7003;12220;50.194;18.948;2022-11-12T01:19:37;30;24;17
24012;PMS7003;12220;50.194;18.948;2022-11-12T01:21:40;24;21;15
24012;PMS7003;12220;50.194;18.948;2022-11-12T01:23:43;29;24;15
24012;PMS7003;12220;50.194;18.948;2022-11-12T01:25:44;20;18;15
24012;PMS7003;12220;50.194;18.948;2022-11-12T01:27:52;34;22;16
24012;PMS7003;12220;50.194;18.948;2022-11-12T01:29:53;28;21;13
24012;PMS7003;12220;50.194;18.948;2022-11-12T01:31:54;26;19;14
24012;PMS7003;12220;50.194;18.948;2022-11-12T01:33:57;27;25;15
24012;PMS7003;12220;50.194;18.948;2022-11-12T01:36:07;29;27;15
24012;PMS7003;12220;50.194;18.948;2022-11-12T01:38:09;23;22;18
24012;PMS7003;12220;50.194;18.948;2022-11-12T01:40:10;35;23;16
24012;PMS7003;12220;50.194;18.948;2022-11-12T01:42:12;29;24;16
24012;PMS7003;12220;50.194;18.948;2022-11-12T01:44:23;28;25;14
24012;PMS7003;12220;50.194;18.948;2022-11-12T01:46:29;38;30;18
24012;PMS7003;12220;50.194;18.948;2022-11-12T01:48:32;33;27;19
24012;PMS7003;12220;50.194;18.948;2022-11-12T01:50:37;27;25;15
24012;PMS7003;12220;50.194;18.948;2022-11-12T01:52:59;33;25;18
24012;PMS7003;12220;50.194;18.948;2022-11-12T01:55:03;30;26;18
24012;PMS7003;12220;50.194;18.948;2022-11-12T01:57:11;32;29;18
24012;PMS7003;12220;50.194;18.948;2022-11-12T01:59:24;28;26;17
24012;PMS7003;12220;50.194;18.948;2022-11-12T02:01:29;35;30;19
24012;PMS7003;12220;50.194;18.948;2022-11-12T02:03:30;28;27;20
24012;PMS7003;12220;50.194;18.948;2022-11-12T02:05:42;31;29;16
24012;PMS7003;12220;50.194;18.948;2022-11-12T02:07:47;32;29;19
24012;PMS7003;12220;50.194;18.948;2022-11-12T02:09:50;37;27;16
24012;PMS7003;12220;50.194;18.948;2022-11-12T02:11:52;25;22;18
24012;PMS7003;12220;50.194;18.948;2022-11-12T02:13:58;35;29;19
24012;PMS7003;12220;50.194;18.948;2022-11-12T02:16:04;37;28;17
24012;PMS7003;12220;50.194;18.948;2022-11-12T02:18:08;25;24;17
24012;PMS7003;12220;50.194;18.948;2022-11-12T02:20:10;36;29;17
24012;PMS7003;12220;50.194;18.948;2022-11-12T02:22:13;25;20;15
24012;PMS7003;12220;50.194;18.948;2022-11-12T02:26:27;36;31;20
24012;PMS7003;12220;50.194;18.948;2022-11-12T02:28:32;31;25;15
24012;PMS7003;12220;50.194;18.948;2022-11-12T02:30:38;30;26;17
24012;PMS7003;12220;50.194;18.948;2022-11-12T02:32:41;30;26;20
24012;PMS7003;12220;50.194;18.948;2022-11-12T02:34:42;28;25;18
24012;PMS7003;12220;50.194;18.948;2022-11-12T02:36:43;26;25;16
24012;PMS7003;12220;50.194;18.948;2022-11-12T02:38:47;26;26;14
24012;PMS7003;12220;50.194;18.948;2022-11-12T02:40:51;27;24;17
24012;PMS7003;12220;50.194;18.948;2022-11-12T02:42:52;25;22;16
24012;PMS7003;12220;50.194;18.948;2022-11-12T02:44:54;19;16;11
24012;PMS7003;12220;50.194;18.948;2022-11-12T02:47:02;25;23;16
24012;PMS7003;12220;50.194;18.948;2022-11-12T02:49:03;19;19;14
24012;PMS7003;12220;50.194;18.948;2022-11-12T02:51:04;28;24;15
24012;PMS7003;12220;50.194;18.948;2022-11-12T02:53:06;16;16;13
24012;PMS7003;12220;50.194;18.948;2022-11-12T02:55:17;29;26;17
24012;PMS7003;12220;50.194;18.948;2022-11-12T02:57:18;23;22;17
24012;PMS7003;12220;50.194;18.948;2022-11-12T02:59:19;25;23;16
24012;PMS7003;12220;50.194;18.948;2022-11-12T03:01:20;29;24;18
24012;PMS7003;12220;50.194;18.948;2022-11-12T03:03:32;24;23;14
24012;PMS7003;12220;50.194;18.948;2022-11-12T03:05:33;24;23;16
24012;PMS7003;12220;50.194;18.948;2022-11-12T03:07:36;22;22;16
24012;PMS7003;12220;50.194;18.948;2022-11-12T03:09:38;25;22;15
24012;PMS7003;12220;50.194;18.948;2022-11-12T03:11:47;25;21;14
24012;PMS7003;12220;50.194;18.948;2022-11-12T03:13:48;34;21;13
24012;PMS7003;12220;50.194;18.948;2022-11-12T03:15:49;18;18;13
24012;PMS7003;12220;50.194;18.948;2022-11-12T03:18:00;23;19;15
24012;PMS7003;12220;50.194;18.948;2022-11-12T03:20:02;28;22;14
24012;PMS7003;12220;50.194;18.948;2022-11-12T03:22:04;19;19;14
24012;PMS7003;12220;50.194;18.948;2022-11-12T03:24:05;21;21;13
24012;PMS7003;12220;50.194;18.948;2022-11-12T03:26:06;21;21;14
24012;PMS7003;12220;50.194;18.948;2022-11-12T03:28:17;22;20;14
24012;PMS7003;12220;50.194;18.948;2022-11-12T03:30:18;24;21;14
24012;PMS7003;12220;50.194;18.948;2022-11-12T03:32:22;25;21;12
24012;PMS7003;12220;50.194;18.948;2022-11-12T03:34:23;22;22;15
24012;PMS7003;12220;50.194;18.948;2022-11-12T03:36:32;21;19;14
24012;PMS7003;12220;50.194;18.948;2022-11-12T03:38:33;30;20;13
24012;PMS7003;12220;50.194;18.948;2022-11-12T03:40:35;26;22;14
24012;PMS7003;12220;50.194;18.948;2022-11-12T03:42:36;16;15;10
24012;PMS7003;12220;50.194;18.948;2022-11-12T03:44:47;34;24;18
24012;PMS7003;12220;50.194;18.948;2022-11-12T03:46:48;32;23;14
24012;PMS7003;12220;50.194;18.948;2022-11-12T03:48:49;24;21;15
24012;PMS7003;12220;50.194;18.948;2022-11-12T03:50:51;26;22;13
24012;PMS7003;12220;50.194;18.948;2022-11-12T03:53:02;29;28;18
24012;PMS7003;12220;50.194;18.948;2022-11-12T03:55:04;29;28;18
24012;PMS7003;12220;50.194;18.948;2022-11-12T03:57:06;32;28;18
24012;PMS7003;12220;50.194;18.948;2022-11-12T03:59:07;26;24;13
24012;PMS7003;12220;50.194;18.948;2022-11-12T04:01:17;23;20;14
24012;PMS7003;12220;50.194;18.948;2022-11-12T04:03:18;27;23;14
24012;PMS7003;12220;50.194;18.948;2022-11-12T04:05:20;24;22;14
24012;PMS7003;12220;50.194;18.948;2022-11-12T04:07:33;30;17;13
24012;PMS7003;12220;50.194;18.948;2022-11-12T04:09:46;31;24;14
24012;PMS7003;12220;50.194;18.948;2022-11-12T04:11:54;40;30;20
24012;PMS7003;12220;50.194;18.948;2022-11-12T04:14:00;35;31;20
24012;PMS7003;12220;50.194;18.948;2022-11-12T04:16:03;34;27;19
24012;PMS7003;12220;50.194;18.948;2022-11-12T04:18:18;33;28;18
24012;PMS7003;12220;50.194;18.948;2022-11-12T04:20:31;24;22;15
24012;PMS7003;12220;50.194;18.948;2022-11-12T04:22:44;22;20;13
24012;PMS7003;12220;50.194;18.948;2022-11-12T04:24:53;23;23;14
24012;PMS7003;12220;50.194;18.948;2022-11-12T04:27:15;30;25;17
24012;PMS7003;12220;50.194;18.948;2022-11-12T04:29:18;21;19;13
24012;PMS7003;12220;50.194;18.948;2022-11-12T04:31:31;25;21;16
24012;PMS7003;12220;50.194;18.948;2022-11-12T04:33:32;33;25;14
24012;PMS7003;12220;50.194;18.948;2022-11-12T04:35:36;21;20;15
24012;PMS7003;12220;50.194;18.948;2022-11-12T04:37:37;28;26;18
24012;PMS7003;12220;50.194;18.948;2022-11-12T04:39:45;27;24;16
24012;PMS7003;12220;50.194;18.948;2022-11-12T04:41:46;31;27;18
24012;PMS7003;12220;50.194;18.948;2022-11-12T04:43:59;24;20;11
24012;PMS7003;12220;50.194;18.948;2022-11-12T04:46:12;29;23;16
24012;PMS7003;12220;50.194;18.948;2022-11-12T04:48:14;28;28;17
24012;PMS7003;12220;50.194;18.948;2022-11-12T04:50:16;30;26;18
24012;PMS7003;12220;50.194;18.948;2022-11-12T04:52:18;32;26;19
24012;PMS7003;12220;50.194;18.948;2022-11-12T04:54:27;24;23;13
24012;PMS7003;12220;50.194;18.948;2022-11-12T04:56:29;23;19;15
24012;PMS7003;12220;50.194;18.948;2022-11-12T04:58:30;23;18;15
24012;PMS7003;12220;50.194;18.948;2022-11-12T05:00:31;23;23;14
24012;PMS7003;12220;50.194;18.948;2022-11-12T05:02:32;29;27;16
24012;PMS7003;12220;50.194;18.948;2022-11-12T05:04:33;38;28;19
24012;PMS7003;12220;50.194;18.948;2022-11-12T05:06:35;31;24;18
24012;PMS7003;12220;50.194;18.948;2022-11-12T05:08:48;28;24;15
24012;PMS7003;12220;50.194;18.948;2022-11-12T05:11:00;28;27;18
24012;PMS7003;12220;50.194;18.948;2022-11-12T05:13:01;23;22;15
24012;PMS7003;12220;50.194;18.948;2022-11-12T05:15:02;26;23;17
24012;PMS7003;12220;50.194;18.948;2022-11-12T05:17:05;23;23;14
24012;PMS7003;12220;50.194;18.948;2022-11-12T05:19:17;31;28;18
24012;PMS7003;12220;50.194;18.948;2022-11-12T05:21:19;24;23;16
24012;PMS7003;12220;50.194;18.948;2022-11-12T05:23:32;27;22;17
24012;PMS7003;12220;50.194;18.948;2022-11-12T05:25:34;26;23;16
24012;PMS7003;12220;50.194;18.948;2022-11-12T05:27:36;23;22;16
24012;PMS7003;12220;50.194;18.948;2022-11-12T05:29:38;39;28;19
24012;PMS7003;12220;50.194;18.948;2022-11-12T05:31:39;33;28;17
24012;PMS7003;12220;50.194;18.948;2022-11-12T05:33:40;34;27;20
24012;PMS7003;12220;50.194;18.948;2022-11-12T05:35:54;44;31;18
24012;PMS7003;12220;50.194;18.948;2022-11-12T05:37:56;24;20;13
24012;PMS7003;12220;50.194;18.948;2022-11-12T05:39:57;29;27;16
24012;PMS7003;12220;50.194;18.948;2022-11-12T05:41:58;26;24;17
24012;PMS7003;12220;50.194;18.948;2022-11-12T05:44:07;20;19;12
24012;PMS7003;12220;50.194;18.948;2022-11-12T05:46:08;29;23;14
24012;PMS7003;12220;50.194;18.948;2022-11-12T05:48:09;31;28;18
24012;PMS7003;12220;50.194;18.948;2022-11-12T05:50:10;27;21;16
24012;PMS7003;12220;50.194;18.948;2022-11-12T05:52:22;30;27;15
24012;PMS7003;12220;50.194;18.948;2022-11-12T05:54:23;29;28;17
24012;PMS7003;12220;50.194;18.948;2022-11-12T05:56:24;25;25;18
24012;PMS7003;12220;50.194;18.948;2022-11-12T05:58:25;33;30;21
24012;PMS7003;12220;50.194;18.948;2022-11-12T06:00:37;32;26;19
24012;PMS7003;12220;50.194;18.948;2022-11-12T06:02:41;30;25;19
24012;PMS7003;12220;50.194;18.948;2022-11-12T06:04:42;38;30;16
24012;PMS7003;12220;50.194;18.948;2022-11-12T06:06:43;34;30;17
24012;PMS7003;12220;50.194;18.948;2022-11-12T06:08:53;27;23;16
24012;PMS7003;12220;50.194;18.948;2022-11-12T06:10:54;33;28;19
24012;PMS7003;12220;50.194;18.948;2022-11-12T06:12:56;40;32;19
24012;PMS7003;12220;50.194;18.948;2022-11-12T06:14:58;35;31;20
24012;PMS7003;12220;50.194;18.948;2022-11-12T06:17:08;30;28;18
24012;PMS7003;12220;50.194;18.948;2022-11-12T06:19:09;37;32;20
24012;PMS7003;12220;50.194;18.948;2022-11-12T06:21:10;37;32;21
24012;PMS7003;12220;50.194;18.948;2022-11-12T06:23:24;41;34;20
24012;PMS7003;12220;50.194;18.948;2022-11-12T06:25:25;40;33;21
24012;PMS7003;12220;50.194;18.948;2022-11-12T06:27:26;45;33;19
24012;PMS7003;12220;50.194;18.948;2022-11-12T06:29:27;30;25;18
24012;PMS7003;12220;50.194;18.948;2022-11-12T06:31:29;28;26;18
24012;PMS7003;12220;50.194;18.948;2022-11-12T06:33:39;30;29;19
24012;PMS7003;12220;50.194;18.948;2022-11-12T06:35:41;34;26;17
24012;PMS7003;12220;50.194;18.948;2022-11-12T06:37:44;27;22;15
24012;PMS7003;12220;50.194;18.948;2022-11-12T06:39:47;27;25;16
24012;PMS7003;12220;50.194;18.948;2022-11-12T06:41:54;30;25;16
24012;PMS7003;12220;50.194;18.948;2022-11-12T06:43:55;26;23;16
24012;PMS7003;12220;50.194;18.948;2022-11-12T06:48:08;26;22;16
24012;PMS7003;12220;50.194;18.948;2022-11-12T06:50:11;31;28;19
24012;PMS7003;12220;50.194;18.948;2022-11-12T06:52:13;30;30;18
24012;PMS7003;12220;50.194;18.948;2022-11-12T06:54:15;21;21;16
24012;PMS7003;12220;50.194;18.948;2022-11-12T06:56:16;27;24;16
24012;PMS7003;12220;50.194;18.948;2022-11-12T06:58:26;29;22;18
24012;PMS7003;12220;50.194;18.948;2022-11-12T07:00:27;37;29;21
24012;PMS7003;12220;50.194;18.948;2022-11-12T07:02:28;30;27;16
24012;PMS7003;12220;50.194;18.948;2022-11-12T07:04:29;36;29;20
24012;PMS7003;12220;50.194;18.948;2022-11-12T07:06:41;31;28;18
24012;PMS7003;12220;50.194;18.948;2022-11-12T07:08:42;31;29;19
24012;PMS7003;12220;50.194;18.948;2022-11-12T07:10:44;43;29;16
24012;PMS7003;12220;50.194;18.948;2022-11-12T07:12:45;28;27;17
24012;PMS7003;12220;50.194;18.948;2022-11-12T07:14:56;32;27;15
24012;PMS7003;12220;50.194;18.948;2022-11-12T07:16:57;34;29;18
24012;PMS7003;12220;50.194;18.948;2022-11-12T07:18:58;36;31;18
24012;PMS7003;12220;50.194;18.948;2022-11-12T07:21:00;36;28;20
24012;PMS7003;12220;50.194;18.948;2022-11-12T07:23:11;30;28;20
24012;PMS7003;12220;50.194;18.948;2022-11-12T07:25:13;35;29;16
24012;PMS7003;12220;50.194;18.948;2022-11-12T07:27:18;42;34;22
24012;PMS7003;12220;50.194;18.948;2022-11-12T07:29:19;30;29;17
24012;PMS7003;12220;50.194;18.948;2022-11-12T07:31:27;28;23;16
24012;PMS7003;12220;50.194;18.948;2022-11-12T07:33:28;39;31;20
24012;PMS7003;12220;50.194;18.948;2022-11-12T07:35:30;38;29;19
24012;PMS7003;12220;50.194;18.948;2022-11-12T07:37:32;40;30;19
24012;PMS7003;12220;50.194;18.948;2022-11-12T07:39:41;42;33;23
24012;PMS7003;12220;50.194;18.948;2022-11-12T07:41:43;40;31;20
24012;PMS7003;12220;50.194;18.948;2022-11-12T07:43:45;24;20;6
24012;PMS7003;12220;50.194;18.948;2022-11-12T07:45:47;49;38;21
24012;PMS7003;12220;50.194;18.948;2022-11-12T07:48:00;43;35;23
24012;PMS7003;12220;50.194;18.948;2022-11-12T07:50:01;42;33;21
24012;PMS7003;12220;50.194;18.948;2022-11-12T07:52:02;43;37;23
24012;PMS7003;12220;50.194;18.948;2022-11-12T07:54:06;49;38;24
24012;PMS7003;12220;50.194;18.948;2022-11-12T07:56:21;51;40;26
24012;PMS7003;12220;50.194;18.948;2022-11-12T07:58:19;54;41;25
24012;PMS7003;12220;50.194;18.948;2022-11-12T08:00:23;49;40;26
24012;PMS7003;12220;50.194;18.948;2022-11-12T08:02:24;51;41;25
24012;PMS7003;12220;50.194;18.948;2022-11-12T08:04:27;48;41;26
24012;PMS7003;12220;50.194;18.948;2022-11-12T08:06:29;54;44;28
24012;PMS7003;12220;50.194;18.948;2022-11-12T08:08:31;56;45;29
24012;PMS7003;12220;50.194;18.948;2022-11-12T08:10:32;62;47;29
24012;PMS7003;12220;50.194;18.948;2022-11-12T08:12:42;62;49;31
24012;PMS7003;12220;50.194;18.948;2022-11-12T08:14:51;66;50;31
24012;PMS7003;12220;50.194;18.948;2022-11-12T08:16:52;62;45;31
24012;PMS7003;12220;50.194;18.948;2022-11-12T08:18:53;62;48;31
24012;PMS7003;12220;50.194;18.948;2022-11-12T08:21:01;63;50;34
24012;PMS7003;12220;50.194;18.948;2022-11-12T08:23:04;60;49;31
24012;PMS7003;12220;50.194;18.948;2022-11-12T08:25:06;66;51;32
24012;PMS7003;12220;50.194;18.948;2022-11-12T08:27:08;72;59;38
24012;PMS7003;12220;50.194;18.948;2022-11-12T08:29:12;69;53;34
24012;PMS7003;12220;50.194;18.948;2022-11-12T08:31:15;62;50;32
24012;PMS7003;12220;50.194;18.948;2022-11-12T08:33:19;55;44;29
24012;PMS7003;12220;50.194;18.948;2022-11-12T08:35:21;57;44;26
24012;PMS7003;12220;50.194;18.948;2022-11-12T08:37:27;48;39;26
24012;PMS7003;12220;50.194;18.948;2022-11-12T08:39:29;46;38;26
24012;PMS7003;12220;50.194;18.948;2022-11-12T08:41:30;39;33;22
24012;PMS7003;12220;50.194;18.948;2022-11-12T08:43:32;40;34;23
24012;PMS7003;12220;50.194;18.948;2022-11-12T08:45:43;27;27;15
24012;PMS7003;12220;50.194;18.948;2022-11-12T08:47:44;36;28;17
24012;PMS7003;12220;50.194;18.948;2022-11-12T08:49:45;29;20;15
24012;PMS7003;12220;50.194;18.948;2022-11-12T08:51:46;24;20;16
24012;PMS7003;12220;50.194;18.948;2022-11-12T08:53:58;16;14;10
24012;PMS7003;12220;50.194;18.948;2022-11-12T08:55:59;18;17;11
24012;PMS7003;12220;50.194;18.948;2022-11-12T08:58:00;19;15;11
24012;PMS7003;12220;50.194;18.948;2022-11-12T09:00:03;20;17;11
24012;PMS7003;12220;50.194;18.948;2022-11-12T09:02:13;25;22;14
24012;PMS7003;12220;50.194;18.948;2022-11-12T09:04:14;23;19;12
24012;PMS7003;12220;50.194;18.948;2022-11-12T09:06:15;18;16;11
24012;PMS7003;12220;50.194;18.948;2022-11-12T09:08:17;16;16;12
24012;PMS7003;12220;50.194;18.948;2022-11-12T09:10:28;19;17;13
24012;PMS7003;12220;50.194;18.948;2022-11-12T09:12:29;23;21;11
24012;PMS7003;12220;50.194;18.948;2022-11-12T09:14:31;25;20;14
24012;PMS7003;12220;50.194;18.948;2022-11-12T09:16:32;21;18;13
24012;PMS7003;12220;50.194;18.948;2022-11-12T09:18:42;22;22;17
24012;PMS7003;12220;50.194;18.948;2022-11-12T09:20:44;21;19;14
24012;PMS7003;12220;50.194;18.948;2022-11-12T09:22:46;29;20;11
24012;PMS7003;12220;50.194;18.948;2022-11-12T09:24:47;23;19;14
24012;PMS7003;12220;50.194;18.948;2022-11-12T09:26:57;21;17;13
24012;PMS7003;12220;50.194;18.948;2022-11-12T09:28:59;23;16;12
24012;PMS7003;12220;50.194;18.948;2022-11-12T09:31:00;16;16;11
24012;PMS7003;12220;50.194;18.948;2022-11-12T09:33:02;21;20;14
24012;PMS7003;12220;50.194;18.948;2022-11-12T09:35:12;27;23;14
24012;PMS7003;12220;50.194;18.948;2022-11-12T09:37:14;25;21;14
24012;PMS7003;12220;50.194;18.948;2022-11-12T09:39:15;25;20;14
24012;PMS7003;12220;50.194;18.948;2022-11-12T09:41:18;13;12;10
24012;PMS7003;12220;50.194;18.948;2022-11-12T09:45:49;21;20;13
24012;PMS7003;12220;50.194;18.948;2022-11-12T09:47:53;21;19;14
24012;PMS7003;12220;50.194;18.948;2022-11-12T09:54:25;17;16;13
24012;PMS7003;12220;50.194;18.948;2022-11-12T09:56:29;17;16;10
24012;PMS7003;12220;50.194;18.948;2022-11-12T09:58:31;22;18;12
24012;PMS7003;12220;50.194;18.948;2022-11-12T10:00:32;17;17;12
24012;PMS7003;12220;50.194;18.948;2022-11-12T10:02:39;27;19;13
24012;PMS7003;12220;50.194;18.948;2022-11-12T10:09:24;30;26;17
24012;PMS7003;12220;50.194;18.948;2022-11-12T10:11:36;28;27;14
24012;PMS7003;12220;50.194;18.948;2022-11-12T10:14:00;30;24;17
24012;PMS7003;12220;50.194;18.948;2022-11-12T10:20:54;18;18;11
24012;PMS7003;12220;50.194;18.948;2022-11-12T10:25:13;16;16;12
24012;PMS7003;12220;50.194;18.948;2022-11-12T10:27:27;17;15;11
24012;PMS7003;12220;50.194;18.948;2022-11-12T10:29:45;24;21;14
24012;PMS7003;12220;50.194;18.948;2022-11-12T10:31:52;17;17;12
24012;PMS7003;12220;50.194;18.948;2022-11-12T10:34:08;16;14;11
24012;PMS7003;12220;50.194;18.948;2022-11-12T10:38:23;11;11;8
24012;PMS7003;12220;50.194;18.948;2022-11-12T10:42:36;13;13;8
24012;PMS7003;12220;50.194;18.948;2022-11-12T10:44:48;17;15;9
24012;PMS7003;12220;50.194;18.948;2022-11-12T10:46:51;21;11;8
24012;PMS7003;12220;50.194;18.948;2022-11-12T10:49:04;12;12;8
24012;PMS7003;12220;50.194;18.948;2022-11-12T10:55:35;14;14;10
24012;PMS7003;12220;50.194;18.948;2022-11-12T10:57:37;20;16;10
24012;PMS7003;12220;50.194;18.948;2022-11-12T11:00:03;22;18;11
24012;PMS7003;12220;50.194;18.948;2022-11-12T11:04:21;23;18;11
24012;PMS7003;12220;50.194;18.948;2022-11-12T11:06:29;15;15;11
24012;PMS7003;12220;50.194;18.948;2022-11-12T11:08:31;16;11;8
24012;PMS7003;12220;50.194;18.948;2022-11-12T11:10:34;8;8;6
24012;PMS7003;12220;50.194;18.948;2022-11-12T11:12:37;12;12;9
24012;PMS7003;12220;50.194;18.948;2022-11-12T11:14:38;8;8;6
24012;PMS7003;12220;50.194;18.948;2022-11-12T11:19:00;8;6;6
24012;PMS7003;12220;50.194;18.948;2022-11-12T11:25:53;11;10;7
24012;PMS7003;12220;50.194;18.948;2022-11-12T11:30:10;10;9;7
24012;PMS7003;12220;50.194;18.948;2022-11-12T11:32:20;11;9;8
24012;PMS7003;12220;50.194;18.948;2022-11-12T11:34:32;14;12;9
24012;PMS7003;12220;50.194;18.948;2022-11-12T11:36:50;21;18;12
24012;PMS7003;12220;50.194;18.948;2022-11-12T11:39:05;19;16;12
24012;PMS7003;12220;50.194;18.948;2022-11-12T11:41:22;15;14;9
24012;PMS7003;12220;50.194;18.948;2022-11-12T11:43:44;18;14;11
24012;PMS7003;12220;50.194;18.948;2022-11-12T11:48:29;15;13;11
24012;PMS7003;12220;50.194;18.948;2022-11-12T11:55:32;25;15;10
24012;PMS7003;12220;50.194;18.948;2022-11-12T12:00:14;21;20;12
24012;PMS7003;12220;50.194;18.948;2022-11-12T12:04:58;15;15;9
24012;PMS7003;12220;50.194;18.948;2022-11-12T12:09:37;15;10;7
24012;PMS7003;12220;50.194;18.948;2022-11-12T12:19:09;17;16;10
24012;PMS7003;12220;50.194;18.948;2022-11-12T12:21:22;15;12;9
24012;PMS7003;12220;50.194;18.948;2022-11-12T12:23:31;13;9;6
24012;PMS7003;12220;50.194;18.948;2022-11-12T12:25:41;13;13;10
24012;PMS7003;12220;50.194;18.948;2022-11-12T12:27:48;14;11;8
24012;PMS7003;12220;50.194;18.948;2022-11-12T12:30:00;14;13;9
24012;PMS7003;12220;50.194;18.948;2022-11-12T12:32:11;6;6;5
24012;PMS7003;12220;50.194;18.948;2022-11-12T12:36:30;10;9;7
24012;PMS7003;12220;50.194;18.948;2022-11-12T12:43:06;14;14;10
24012;PMS7003;12220;50.194;18.948;2022-11-12T12:47:36;9;8;6
24012;PMS7003;12220;50.194;18.948;2022-11-12T12:49:43;9;7;5
24012;PMS7003;12220;50.194;18.948;2022-11-12T12:51:46;8;8;6
24012;PMS7003;12220;50.194;18.948;2022-11-12T12:53:47;9;8;7
24012;PMS7003;12220;50.194;18.948;2022-11-12T12:55:51;7;5;3
24012;PMS7003;12220;50.194;18.948;2022-11-12T13:02:19;7;6;4
24012;PMS7003;12220;50.194;18.948;2022-11-12T13:06:38;15;13;10
24012;PMS7003;12220;50.194;18.948;2022-11-12T13:11:10;10;10;7
24012;PMS7003;12220;50.194;18.948;2022-11-12T13:13:33;14;13;10
24012;PMS7003;12220;50.194;18.948;2022-11-12T13:17:49;9;9;6
24012;PMS7003;12220;50.194;18.948;2022-11-12T13:31:25;8;5;4
24012;PMS7003;12220;50.194;18.948;2022-11-12T13:33:30;6;5;4
24012;PMS7003;12220;50.194;18.948;2022-11-12T13:35:36;8;8;6
24012;PMS7003;12220;50.194;18.948;2022-11-12T13:39:52;8;5;4
24012;PMS7003;12220;50.194;18.948;2022-11-12T13:41:58;8;7;4
24012;PMS7003;12220;50.194;18.948;2022-11-12T13:44:20;4;4;3
24012;PMS7003;12220;50.194;18.948;2022-11-12T13:46:25;4;4;3
24012;PMS7003;12220;50.194;18.948;2022-11-12T13:49:13;5;5;4
24012;PMS7003;12220;50.194;18.948;2022-11-12T13:50:48;6;3;3
24012;PMS7003;12220;50.194;18.948;2022-11-12T13:52:54;5;5;4
24012;PMS7003;12220;50.194;18.948;2022-11-12T13:55:16;4;4;3
24012;PMS7003;12220;50.194;18.948;2022-11-12T13:57:25;5;5;4
24012;PMS7003;12220;50.194;18.948;2022-11-12T13:59:40;7;7;5
24012;PMS7003;12220;50.194;18.948;2022-11-12T14:01:41;3;3;3
24012;PMS7003;12220;50.194;18.948;2022-11-12T14:03:44;7;4;3
24012;PMS7003;12220;50.194;18.948;2022-11-12T14:05:50;7;7;5
24012;PMS7003;12220;50.194;18.948;2022-11-12T14:24:13;5;4;3
24012;PMS7003;12220;50.194;18.948;2022-11-12T14:26:31;4;2;2
24012;PMS7003;12220;50.194;18.948;2022-11-12T14:28:31;5;5;4
24012;PMS7003;12220;50.194;18.948;2022-11-12T14:30:34;4;3;3
24012;PMS7003;12220;50.194;18.948;2022-11-12T14:32:45;4;3;2
24012;PMS7003;12220;50.194;18.948;2022-11-12T14:34:48;4;4;3
24012;PMS7003;12220;50.194;18.948;2022-11-12T14:36:49;4;4;3
24012;PMS7003;12220;50.194;18.948;2022-11-12T14:38:55;4;3;3
24012;PMS7003;12220;50.194;18.948;2022-11-12T14:45:38;5;5;4
24012;PMS7003;12220;50.194;18.948;2022-11-12T14:47:49;4;4;2
24012;PMS7003;12220;50.194;18.948;2022-11-12T14:49:52;7;6;4
24012;PMS7003;12220;50.194;18.948;2022-11-12T14:51:54;9;7;5
24012;PMS7003;12220;50.194;18.948;2022-11-12T14:54:05;10;9;7
24012;PMS7003;12220;50.194;18.948;2022-11-12T14:58:39;12;10;7
24012;PMS7003;12220;50.194;18.948;2022-11-12T15:00:45;12;7;5
24012;PMS7003;12220;50.194;18.948;2022-11-12T15:02:49;7;6;5
24012;PMS7003;12220;50.194;18.948;2022-11-12T15:04:51;14;10;6
24012;PMS7003;12220;50.194;18.948;2022-11-12T15:06:58;7;6;5
24012;PMS7003;12220;50.194;18.948;2022-11-12T15:09:00;14;7;5
24012;PMS7003;12220;50.194;18.948;2022-11-12T15:13:15;11;11;7
24012;PMS7003;12220;50.194;18.948;2022-11-12T15:15:19;8;7;7
24012;PMS7003;12220;50.194;18.948;2022-11-12T15:17:32;11;11;8
24012;PMS7003;12220;50.194;18.948;2022-11-12T15:19:34;13;9;8
24012;PMS7003;12220;50.194;18.948;2022-11-12T15:21:45;8;8;6